Time;durP1;ratioP1;P1;durP2;ratioP2;P2;SDS_P1;SDS_P2;PMS_P1;PMS_P2;Temp;Humidity;BMP_temperature;BMP_pressure;BME280_temperature;BME280_humidity;BME280_pressure;Samples;Min_cycle;Max_cycle;Signal;HPM_P1;HPM_P2
2023/04/25 00:01:05;;;;;;;;;;;18.60;65.10;;;;;;4933778;29;863;-71
2023/04/25 00:03:31;;;;;;;;;;;18.60;65.10;;;;;;4933052;29;1362;-71
2023/04/25 00:05:57;;;;;;;;;;;18.60;65.10;;;;;;4933467;29;1911;-71
2023/04/25 00:08:23;;;;;;;;;;;18.60;65.10;;;;;;4932424;29;1262;-71
2023/04/25 00:10:48;;;;;;;;;;;18.60;65.10;;;;;;4933489;29;1330;-71
2023/04/25 00:13:14;;;;;;;;;;;18.60;65.20;;;;;;4933421;29;876;-72
2023/04/25 00:15:41;;;;;;;;;;;18.60;65.20;;;;;;4948131;29;1285;-71
2023/04/25 00:18:07;;;;;;;;;;;18.60;65.20;;;;;;4933496;29;861;-71
2023/04/25 00:20:32;;;;;;;;;;;18.60;65.20;;;;;;4933631;29;880;-71
2023/04/25 00:22:57;;;;;;;;;;;18.60;65.20;;;;;;4947884;29;1565;-71
2023/04/25 00:25:23;;;;;;;;;;;18.60;65.20;;;;;;4933437;29;1934;-71
2023/04/25 00:27:48;;;;;;;;;;;18.60;65.20;;;;;;4934673;29;952;-71
2023/04/25 00:30:14;;;;;;;;;;;18.60;65.20;;;;;;4933615;29;1320;-71
2023/04/25 00:32:40;;;;;;;;;;;18.60;65.30;;;;;;4931689;29;875;-71
2023/04/25 00:35:05;;;;;;;;;;;18.60;65.30;;;;;;4933363;29;1600;-71
2023/04/25 00:37:31;;;;;;;;;;;18.50;65.30;;;;;;4932981;29;831;-71
2023/04/25 00:39:57;;;;;;;;;;;18.50;65.30;;;;;;4947224;29;1257;-71
2023/04/25 00:42:23;;;;;;;;;;;18.50;65.30;;;;;;4933049;29;877;-71
2023/04/25 00:44:48;;;;;;;;;;;18.50;65.30;;;;;;4931679;29;1218;-71
2023/04/25 00:47:14;;;;;;;;;;;18.50;65.30;;;;;;4948092;29;822;-71
2023/04/25 00:49:39;;;;;;;;;;;18.60;65.40;;;;;;4947663;29;856;-71
2023/04/25 00:52:04;;;;;;;;;;;18.50;65.30;;;;;;4933182;29;858;-71
2023/04/25 00:54:30;;;;;;;;;;;18.50;65.30;;;;;;4932689;29;1214;-71
2023/04/25 00:56:56;;;;;;;;;;;18.50;65.40;;;;;;4932931;29;856;-71
2023/04/25 00:59:21;;;;;;;;;;;18.50;65.40;;;;;;4946666;29;1150;-71
2023/04/25 01:01:47;;;;;;;;;;;18.50;65.40;;;;;;4933032;29;904;-71
2023/04/25 01:04:12;;;;;;;;;;;18.50;65.40;;;;;;4932487;29;1323;-71
2023/04/25 01:06:38;;;;;;;;;;;18.50;65.40;;;;;;4932975;29;1920;-72
2023/04/25 01:09:04;;;;;;;;;;;18.50;65.40;;;;;;4932955;29;908;-71
2023/04/25 01:11:29;;;;;;;;;;;18.50;65.50;;;;;;4932785;29;952;-71
2023/04/25 01:13:55;;;;;;;;;;;18.50;65.40;;;;;;4932705;29;1386;-71
2023/04/25 01:16:23;;;;;;;;;;;18.50;65.40;;;;;;4932954;29;821;-71
2023/04/25 01:18:50;;;;;;;;;;;18.50;65.50;;;;;;4931374;29;815;-71
2023/04/25 01:21:15;;;;;;;;;;;18.50;65.40;;;;;;4931583;29;1041;-71
2023/04/25 01:23:41;;;;;;;;;;;18.50;65.50;;;;;;4932487;29;1270;-71
2023/04/25 01:26:06;;;;;;;;;;;18.50;65.50;;;;;;4932539;29;1938;-71
2023/04/25 01:28:33;;;;;;;;;;;18.50;65.50;;;;;;4947483;29;1564;-70
2023/04/25 01:30:58;;;;;;;;;;;18.50;65.50;;;;;;4931117;29;972;-70
2023/04/25 01:33:24;;;;;;;;;;;18.50;65.50;;;;;;4947404;29;1548;-71
2023/04/25 01:35:49;;;;;;;;;;;18.50;65.60;;;;;;4946927;29;1327;-71
2023/04/25 01:38:14;;;;;;;;;;;18.50;65.60;;;;;;4932591;29;938;-71
2023/04/25 01:40:40;;;;;;;;;;;18.50;65.60;;;;;;4932518;29;1270;-71
2023/04/25 01:43:06;;;;;;;;;;;18.50;65.60;;;;;;4947225;29;1413;-71
2023/04/25 01:45:32;;;;;;;;;;;18.50;65.60;;;;;;4947191;28;1918;-71
2023/04/25 01:47:59;;;;;;;;;;;18.50;65.60;;;;;;4932722;29;909;-71
2023/04/25 01:50:24;;;;;;;;;;;18.50;65.60;;;;;;4934147;29;874;-72
2023/04/25 01:52:50;;;;;;;;;;;18.50;65.60;;;;;;4935796;29;1019;-72
2023/04/25 01:55:15;;;;;;;;;;;18.50;65.60;;;;;;4935758;29;1320;-71
2023/04/25 01:57:41;;;;;;;;;;;18.40;65.60;;;;;;4936008;29;910;-71
2023/04/25 02:00:07;;;;;;;;;;;18.50;65.70;;;;;;4935918;29;923;-71
2023/04/25 02:02:32;;;;;;;;;;;18.50;65.60;;;;;;4934592;29;884;-72
2023/04/25 02:04:58;;;;;;;;;;;18.50;65.70;;;;;;4935517;29;1911;-72
2023/04/25 02:07:23;;;;;;;;;;;18.50;65.70;;;;;;4935957;29;1003;-71
2023/04/25 02:09:48;;;;;;;;;;;18.40;65.60;;;;;;4935584;29;837;-71
2023/04/25 02:12:14;;;;;;;;;;;18.50;65.70;;;;;;4936006;29;884;-72
2023/04/25 02:14:39;;;;;;;;;;;18.50;65.70;;;;;;4950575;29;1375;-71
2023/04/25 02:17:05;;;;;;;;;;;18.40;65.70;;;;;;4951712;29;1281;-72
2023/04/25 02:19:30;;;;;;;;;;;18.40;65.70;;;;;;4935651;29;853;-71
2023/04/25 02:21:56;;;;;;;;;;;18.40;65.70;;;;;;4935615;29;844;-72
2023/04/25 02:24:22;;;;;;;;;;;18.50;65.70;;;;;;4934946;29;1221;-71
2023/04/25 02:26:49;;;;;;;;;;;18.50;65.70;;;;;;4935549;29;1911;-71
2023/04/25 02:29:15;;;;;;;;;;;18.40;65.70;;;;;;4934143;29;900;-71
2023/04/25 02:31:40;;;;;;;;;;;18.40;65.70;;;;;;4934112;29;805;-71
2023/04/25 02:34:06;;;;;;;;;;;18.40;65.70;;;;;;4935212;29;1649;-71
2023/04/25 02:36:34;;;;;;;;;;;18.40;65.70;;;;;;4935283;29;943;-71
2023/04/25 02:39:00;;;;;;;;;;;18.40;65.80;;;;;;4935144;29;841;-71
2023/04/25 02:41:26;;;;;;;;;;;18.40;65.80;;;;;;4935236;29;1266;-71
2023/04/25 02:43:51;;;;;;;;;;;18.40;65.70;;;;;;4933581;29;1326;-71
2023/04/25 02:46:17;;;;;;;;;;;18.40;65.80;;;;;;4934935;29;1911;-71
2023/04/25 02:48:42;;;;;;;;;;;18.40;65.80;;;;;;4935091;29;884;-71
2023/04/25 02:51:07;;;;;;;;;;;18.40;65.80;;;;;;4934910;29;954;-71
2023/04/25 02:53:33;;;;;;;;;;;18.50;65.90;;;;;;4934526;29;1268;-71
2023/04/25 02:55:59;;;;;;;;;;;18.50;65.90;;;;;;4934893;29;876;-71
2023/04/25 02:58:24;;;;;;;;;;;18.50;65.90;;;;;;4934859;29;825;-71
2023/04/25 03:00:50;;;;;;;;;;;18.50;65.90;;;;;;4934492;29;856;-70
2023/04/25 03:03:17;;;;;;;;;;;18.40;65.80;;;;;;4934302;29;1616;-71
2023/04/25 03:05:46;;;;;;;;;;;18.50;66.00;;;;;;4934318;29;1911;-71
2023/04/25 03:08:12;;;;;;;;;;;18.40;65.80;;;;;;4933113;29;853;-71
2023/04/25 03:10:38;;;;;;;;;;;18.40;65.80;;;;;;4934468;29;847;-71
2023/04/25 03:13:03;;;;;;;;;;;18.40;65.80;;;;;;4949119;28;1520;-71
2023/04/25 03:15:29;;;;;;;;;;;18.40;65.90;;;;;;4934484;29;1254;-71
2023/04/25 03:17:54;;;;;;;;;;;18.40;66.00;;;;;;4934613;29;879;-71
2023/04/25 03:20:20;;;;;;;;;;;18.40;65.90;;;;;;4934379;29;994;-71
2023/04/25 03:22:45;;;;;;;;;;;18.40;65.90;;;;;;4933880;29;994;-71
2023/04/25 03:25:11;;;;;;;;;;;18.40;65.90;;;;;;4934150;29;1906;-71
2023/04/25 03:27:36;;;;;;;;;;;18.40;65.90;;;;;;4949020;29;1470;-70
2023/04/25 03:30:02;;;;;;;;;;;18.40;65.90;;;;;;4948902;29;1316;-71
2023/04/25 03:32:28;;;;;;;;;;;18.40;66.00;;;;;;4934329;29;844;-71
2023/04/25 03:34:53;;;;;;;;;;;18.40;66.00;;;;;;4934387;29;1400;-71
2023/04/25 03:37:19;;;;;;;;;;;18.40;66.00;;;;;;4948611;29;871;-71
2023/04/25 03:39:45;;;;;;;;;;;18.40;66.00;;;;;;4934090;29;845;-71
2023/04/25 03:42:10;;;;;;;;;;;18.40;66.00;;;;;;4934006;29;1278;-71
2023/04/25 03:44:35;;;;;;;;;;;18.40;66.00;;;;;;4948304;29;1347;-71
2023/04/25 03:47:01;;;;;;;;;;;18.40;66.00;;;;;;4933909;29;1960;-71
2023/04/25 03:49:26;;;;;;;;;;;18.40;66.80;;;;;;4933935;29;858;-70
2023/04/25 03:51:52;;;;;;;;;;;18.40;66.00;;;;;;4933733;29;797;-70
2023/04/25 03:54:17;;;;;;;;;;;18.40;66.00;;;;;;4933412;29;1327;-71
2023/04/25 03:56:43;;;;;;;;;;;18.40;66.10;;;;;;4933809;29;830;-71
2023/04/25 03:59:08;;;;;;;;;;;18.40;66.00;;;;;;4933463;29;949;-71
2023/04/25 04:01:34;;;;;;;;;;;18.40;66.10;;;;;;4933282;29;896;-72
2023/04/25 04:03:59;;;;;;;;;;;18.40;66.10;;;;;;4933381;29;1332;-72
2023/04/25 04:06:25;;;;;;;;;;;18.40;66.10;;;;;;4934418;29;1964;-71
2023/04/25 04:08:50;;;;;;;;;;;18.40;66.00;;;;;;4933286;29;852;-71
2023/04/25 04:11:16;;;;;;;;;;;18.40;66.00;;;;;;4932105;29;1264;-71
2023/04/25 04:13:41;;;;;;;;;;;18.40;66.00;;;;;;4933072;29;1362;-71
2023/04/25 04:16:07;;;;;;;;;;;18.40;66.00;;;;;;4933261;29;888;-71
2023/04/25 04:18:33;;;;;;;;;;;18.40;65.80;;;;;;4932431;29;867;-71
2023/04/25 04:20:58;;;;;;;;;;;18.50;65.80;;;;;;4933281;29;801;-72
2023/04/25 04:23:24;;;;;;;;;;;18.50;65.70;;;;;;4933209;29;824;-72
2023/04/25 04:25:49;;;;;;;;;;;18.50;65.50;;;;;;4947481;28;1972;-73
2023/04/25 04:28:15;;;;;;;;;;;18.60;65.50;;;;;;4933661;29;1963;-73
2023/04/25 04:30:42;;;;;;;;;;;18.60;65.40;;;;;;4934567;29;1421;-72
2023/04/25 04:33:08;;;;;;;;;;;18.60;65.30;;;;;;4931663;29;1279;-73
2023/04/25 04:35:36;;;;;;;;;;;18.60;65.20;;;;;;4933248;29;1257;-71
2023/04/25 04:38:01;;;;;;;;;;;18.60;65.10;;;;;;4932285;29;870;-72
2023/04/25 04:40:27;;;;;;;;;;;18.70;65.80;;;;;;4933020;29;1279;-72
2023/04/25 04:42:53;;;;;;;;;;;18.70;65.00;;;;;;4947749;29;858;-73
2023/04/25 04:45:20;;;;;;;;;;;18.70;64.90;;;;;;4931694;29;1993;-72
2023/04/25 04:47:46;;;;;;;;;;;18.70;64.90;;;;;;4932665;29;857;-72
2023/04/25 04:50:11;;;;;;;;;;;18.80;64.90;;;;;;4933100;29;837;-72
2023/04/25 04:52:37;;;;;;;;;;;18.80;64.70;;;;;;4933024;29;841;-72
2023/04/25 04:55:03;;;;;;;;;;;18.90;64.60;;;;;;4932977;29;1252;-72
2023/04/25 04:57:28;;;;;;;;;;;19.00;64.50;;;;;;4931999;29;928;-72
2023/04/25 04:59:54;;;;;;;;;;;19.10;64.40;;;;;;4933087;29;797;-71
2023/04/25 05:02:19;;;;;;;;;;;19.20;64.20;;;;;;4930042;29;1733;-71
2023/04/25 05:04:45;;;;;;;;;;;19.20;63.90;;;;;;4946926;29;1481;-72
2023/04/25 05:07:11;;;;;;;;;;;19.40;63.70;;;;;;4934055;29;1938;-72
2023/04/25 05:09:36;;;;;;;;;;;19.50;63.40;;;;;;4934238;29;846;-72
2023/04/25 05:12:02;;;;;;;;;;;19.60;63.10;;;;;;4934360;29;908;-74
2023/04/25 05:14:27;;;;;;;;;;;19.70;62.90;;;;;;4932983;29;1291;-71
2023/04/25 05:16:53;;;;;;;;;;;19.80;62.60;;;;;;4932985;29;801;-71
2023/04/25 05:19:18;;;;;;;;;;;19.80;62.40;;;;;;4930924;29;877;-70
2023/04/25 05:21:43;;;;;;;;;;;19.90;62.20;;;;;;4931553;29;1301;-70
2023/04/25 05:24:09;;;;;;;;;;;20.00;61.90;;;;;;4932298;29;1368;-70
2023/04/25 05:26:34;;;;;;;;;;;20.00;61.80;;;;;;4936205;29;1960;-70
2023/04/25 05:29:00;;;;;;;;;;;20.10;61.50;;;;;;4936487;29;1011;-70
2023/04/25 05:31:25;;;;;;;;;;;20.10;61.30;;;;;;4936399;29;1311;-70
2023/04/25 05:33:51;;;;;;;;;;;20.20;61.20;;;;;;4937331;29;1376;-70
2023/04/25 05:36:17;;;;;;;;;;;20.20;61.00;;;;;;4936032;29;1150;-70
2023/04/25 05:38:43;;;;;;;;;;;20.30;60.90;;;;;;4936199;29;998;-70
2023/04/25 05:41:08;;;;;;;;;;;20.30;60.80;;;;;;4935985;29;1058;-70
2023/04/25 05:43:34;;;;;;;;;;;20.40;60.70;;;;;;4936027;29;1286;-70
2023/04/25 05:45:59;;;;;;;;;;;20.40;60.50;;;;;;4950843;29;2030;-70
2023/04/25 05:48:25;;;;;;;;;;;20.50;60.40;;;;;;4935959;29;884;-70
2023/04/25 05:50:51;;;;;;;;;;;20.50;60.40;;;;;;4951003;28;1766;-71
2023/04/25 05:53:17;;;;;;;;;;;20.60;60.30;;;;;;4935877;29;1287;-71
2023/04/25 05:55:42;;;;;;;;;;;20.60;60.20;;;;;;4937858;29;2704;-71
2023/04/25 05:58:08;;;;;;;;;;;20.60;60.10;;;;;;4936087;29;1301;-70
2023/04/25 06:00:33;;;;;;;;;;;20.60;60.00;;;;;;4935656;29;1389;-71
2023/04/25 06:02:59;;;;;;;;;;;20.70;59.90;;;;;;4935058;29;1919;-71
2023/04/25 06:05:24;;;;;;;;;;;20.70;59.90;;;;;;4935092;29;1974;-70
2023/04/25 06:07:50;;;;;;;;;;;20.70;59.80;;;;;;4935709;29;825;-71
2023/04/25 06:10:15;;;;;;;;;;;20.80;59.80;;;;;;4934552;29;958;-70
2023/04/25 06:12:41;;;;;;;;;;;20.80;59.80;;;;;;4935301;29;1083;-71
2023/04/25 06:15:07;;;;;;;;;;;20.80;59.70;;;;;;4935386;29;1297;-70
2023/04/25 06:17:32;;;;;;;;;;;20.80;59.70;;;;;;4934662;29;823;-71
2023/04/25 06:19:58;;;;;;;;;;;20.90;59.70;;;;;;4933075;29;1845;-71
2023/04/25 06:22:23;;;;;;;;;;;20.90;59.60;;;;;;4934807;29;2084;-71
2023/04/25 06:24:49;;;;;;;;;;;20.90;60.20;;;;;;4934818;29;1345;-72
2023/04/25 06:27:14;;;;;;;;;;;20.90;59.50;;;;;;4934008;29;1903;-71
2023/04/25 06:29:39;;;;;;;;;;;20.90;59.50;;;;;;4935367;29;939;-70
2023/04/25 06:32:05;;;;;;;;;;;20.90;59.50;;;;;;4935138;29;1003;-71
2023/04/25 06:34:30;;;;;;;;;;;20.90;59.50;;;;;;4935090;29;1460;-70
2023/04/25 06:36:56;;;;;;;;;;;21.00;59.60;;;;;;4933886;29;824;-71
2023/04/25 06:39:23;;;;;;;;;;;20.90;59.60;;;;;;4935263;29;832;-71
2023/04/25 06:41:48;;;;;;;;;;;20.90;59.60;;;;;;4949661;29;1250;-71
2023/04/25 06:44:15;;;;;;;;;;;20.90;59.70;;;;;;4934870;29;1243;-70
2023/04/25 06:46:40;;;;;;;;;;;20.90;59.80;;;;;;4934122;29;2082;-71
2023/04/25 06:49:06;;;;;;;;;;;20.90;59.90;;;;;;4934611;29;1242;-71
2023/04/25 06:51:31;;;;;;;;;;;20.80;59.90;;;;;;4934668;29;1468;-71
2023/04/25 06:53:57;;;;;;;;;;;20.80;60.00;;;;;;4934672;29;1236;-71
2023/04/25 06:56:23;;;;;;;;;;;20.80;60.10;;;;;;4949376;29;822;-71
2023/04/25 06:58:48;;;;;;;;;;;20.80;60.20;;;;;;4934600;29;1223;-72
2023/04/25 07:01:14;;;;;;;;;;;20.70;60.30;;;;;;4934359;29;1023;-71
2023/04/25 07:03:39;;;;;;;;;;;20.70;60.40;;;;;;4934368;29;1264;-71
2023/04/25 07:06:05;;;;;;;;;;;20.70;60.40;;;;;;4949385;28;2002;-71
2023/04/25 07:08:31;;;;;;;;;;;20.70;60.50;;;;;;4934532;29;987;-71
2023/04/25 07:10:56;;;;;;;;;;;20.70;60.50;;;;;;4949555;29;856;-71
2023/04/25 07:13:21;;;;;;;;;;;20.70;60.60;;;;;;4934456;29;907;-70
2023/04/25 07:15:48;;;;;;;;;;;20.70;60.70;;;;;;4933924;29;1273;-71
2023/04/25 07:18:13;;;;;;;;;;;20.60;60.70;;;;;;4934203;29;879;-71
2023/04/25 07:20:38;;;;;;;;;;;20.60;60.70;;;;;;4934725;29;912;-72
2023/04/25 07:23:04;;;;;;;;;;;20.60;60.70;;;;;;4934048;29;843;-70
2023/04/25 07:25:30;;;;;;;;;;;20.60;60.90;;;;;;4934146;29;1903;-69
2023/04/25 07:27:56;;;;;;;;;;;20.60;60.90;;;;;;4933990;29;903;-68
2023/04/25 07:30:21;;;;;;;;;;;20.60;61.00;;;;;;4933850;29;924;-69
2023/04/25 07:32:47;;;;;;;;;;;20.60;61.00;;;;;;4932642;29;880;-71
2023/04/25 07:35:12;;;;;;;;;;;20.50;60.90;;;;;;4933548;29;1301;-72
2023/04/25 07:37:38;;;;;;;;;;;20.50;61.00;;;;;;4948983;29;943;-72
2023/04/25 07:40:03;;;;;;;;;;;20.50;61.00;;;;;;4934031;29;1283;-70
2023/04/25 07:42:29;;;;;;;;;;;20.50;61.10;;;;;;4934155;29;1425;-70
2023/04/25 07:44:55;;;;;;;;;;;20.50;61.10;;;;;;4933404;29;1332;-70
2023/04/25 07:47:20;;;;;;;;;;;20.50;61.50;;;;;;4932994;29;1907;-72
2023/04/25 07:49:46;;;;;;;;;;;20.50;62.30;;;;;;4932534;29;1954;-72
2023/04/25 07:52:12;;;;;;;;;;;20.50;62.70;;;;;;4916374;29;1274;-70
2023/04/25 07:54:37;;;;;;;;;;;20.50;63.30;;;;;;4932961;29;1386;-71
2023/04/25 07:57:03;;;;;;;;;;;20.40;62.90;;;;;;4933316;29;1263;-71
2023/04/25 07:59:28;;;;;;;;;;;20.50;63.50;;;;;;4933037;29;1637;-72
2023/04/25 08:01:54;;;;;;;;;;;20.40;63.70;;;;;;4954367;28;1381;-73
2023/04/25 08:04:19;;;;;;;;;;;20.40;64.10;;;;;;4932540;29;1448;-72
2023/04/25 08:06:45;;;;;;;;;;;20.40;64.30;;;;;;4933674;29;1907;-72
2023/04/25 08:09:10;;;;;;;;;;;20.40;64.50;;;;;;4931318;29;1604;-71
2023/04/25 08:11:36;;;;;;;;;;;20.40;64.60;;;;;;4932775;29;1297;-72
2023/04/25 08:14:02;;;;;;;;;;;20.40;64.60;;;;;;4950929;28;1501;-72
2023/04/25 08:16:27;;;;;;;;;;;20.40;64.80;;;;;;4931507;29;1493;-71
2023/04/25 08:18:53;;;;;;;;;;;20.40;64.90;;;;;;4932476;29;1395;-71
2023/04/25 08:21:19;;;;;;;;;;;20.40;65.10;;;;;;4949352;28;1447;-71
2023/04/25 08:23:44;;;;;;;;;;;20.40;65.00;;;;;;4949879;28;1383;-72
2023/04/25 08:26:10;;;;;;;;;;;20.30;65.10;;;;;;4932409;29;1895;-72
2023/04/25 08:28:35;;;;;;;;;;;20.30;65.10;;;;;;4933577;29;787;-71
2023/04/25 08:31:01;;;;;;;;;;;20.30;65.30;;;;;;4932996;29;845;-72
2023/04/25 08:33:26;;;;;;;;;;;20.30;65.30;;;;;;4933217;29;1175;-72
2023/04/25 08:35:52;;;;;;;;;;;20.30;65.40;;;;;;4932653;29;1254;-72
2023/04/25 08:38:18;;;;;;;;;;;20.30;65.50;;;;;;4932944;29;953;-72
2023/04/25 08:40:43;;;;;;;;;;;20.30;65.50;;;;;;4928547;29;1150;-72
2023/04/25 08:43:12;;;;;;;;;;;20.30;65.70;;;;;;4932621;29;824;-72
2023/04/25 08:45:41;;;;;;;;;;;20.30;66.00;;;;;;4946131;29;1982;-72
2023/04/25 08:48:07;;;;;;;;;;;20.20;66.10;;;;;;4947276;29;872;-72
2023/04/25 08:50:32;;;;;;;;;;;20.20;66.40;;;;;;4933182;29;830;-72
2023/04/25 08:52:58;;;;;;;;;;;20.20;66.70;;;;;;4932060;29;1416;-71
2023/04/25 08:55:24;;;;;;;;;;;20.20;67.60;;;;;;4947617;29;1263;-71
2023/04/25 08:57:49;;;;;;;;;;;20.30;67.50;;;;;;4931777;29;887;-71
2023/04/25 09:00:15;;;;;;;;;;;20.20;67.80;;;;;;4934261;29;958;-71
2023/04/25 09:02:40;;;;;;;;;;;20.20;68.00;;;;;;4936438;29;821;-72
2023/04/25 09:05:06;;;;;;;;;;;20.20;68.20;;;;;;4950623;29;1382;-72
2023/04/25 09:07:32;;;;;;;;;;;20.20;68.20;;;;;;4934421;29;1911;-71
2023/04/25 09:09:59;;;;;;;;;;;20.20;68.30;;;;;;4950493;29;868;-72
2023/04/25 09:12:25;;;;;;;;;;;20.20;68.40;;;;;;4936567;29;939;-72
2023/04/25 09:15:09;;;;;;;;;;;20.20;68.50;;;;;;4932911;29;2133;-72
2023/04/25 09:17:39;;;;;;;;;;;20.20;68.60;;;;;;4950381;29;1499;-72
2023/04/25 09:20:07;;;;;;;;;;;20.20;68.90;;;;;;4935165;29;936;-72
2023/04/25 09:22:33;;;;;;;;;;;20.20;68.90;;;;;;4935112;29;1455;-72
2023/04/25 09:24:58;;;;;;;;;;;20.10;68.80;;;;;;4935965;29;1907;-71
2023/04/25 09:27:25;;;;;;;;;;;20.10;68.80;;;;;;4950591;29;1954;-72
2023/04/25 09:29:58;;;;;;;;;;;20.10;68.80;;;;;;4951030;28;1270;-71
2023/04/25 09:32:24;;;;;;;;;;;20.10;69.00;;;;;;4936757;29;1232;-72
2023/04/25 09:34:50;;;;;;;;;;;20.10;68.90;;;;;;4938212;29;1232;-71
2023/04/25 09:37:28;;;;;;;;;;;20.10;68.90;;;;;;4951357;29;1006;-71
2023/04/25 09:39:54;;;;;;;;;;;20.10;68.90;;;;;;4936008;29;1321;-71
2023/04/25 09:42:24;;;;;;;;;;;20.10;68.90;;;;;;4936714;29;859;-71
2023/04/25 09:44:51;;;;;;;;;;;20.10;68.90;;;;;;4935695;29;1567;-70
2023/04/25 09:47:17;;;;;;;;;;;20.10;69.00;;;;;;4935952;29;1946;-72
2023/04/25 09:49:43;;;;;;;;;;;20.10;69.40;;;;;;4939117;29;805;-72
2023/04/25 09:52:08;;;;;;;;;;;20.10;69.00;;;;;;4938417;29;800;-72
2023/04/25 09:54:34;;;;;;;;;;;20.10;69.20;;;;;;4938156;29;1324;-72
2023/04/25 09:57:02;;;;;;;;;;;20.00;69.40;;;;;;4938015;29;871;-72
2023/04/25 09:59:28;;;;;;;;;;;20.00;69.40;;;;;;4951615;29;880;-72
2023/04/25 10:01:53;;;;;;;;;;;20.10;69.60;;;;;;4935176;29;915;-70
2023/04/25 10:04:20;;;;;;;;;;;20.10;69.60;;;;;;4935155;29;1364;-70
2023/04/25 10:06:46;;;;;;;;;;;20.10;69.70;;;;;;4924941;29;1914;-70
2023/04/25 10:09:11;;;;;;;;;;;20.10;69.70;;;;;;4949922;29;907;-70
2023/04/25 10:11:37;;;;;;;;;;;20.10;69.60;;;;;;4950109;28;1242;-70
2023/04/25 10:14:02;;;;;;;;;;;20.10;69.70;;;;;;4949466;29;1351;-70
2023/04/25 10:16:27;;;;;;;;;;;20.10;69.80;;;;;;4950590;29;816;-70
2023/04/25 10:18:53;;;;;;;;;;;20.10;69.80;;;;;;4950733;29;878;-70
2023/04/25 10:21:19;;;;;;;;;;;20.10;69.80;;;;;;4950061;29;949;-70
2023/04/25 10:23:45;;;;;;;;;;;20.10;69.90;;;;;;4949725;29;1331;-70
2023/04/25 10:26:12;;;;;;;;;;;20.20;70.20;;;;;;4934012;29;1946;-71
2023/04/25 10:29:00;;;;;;;;;;;20.10;71.50;;;;;;4935330;29;845;-72
2023/04/25 10:31:26;;;;;;;;;;;20.10;70.90;;;;;;4935505;29;888;-71
2023/04/25 10:33:51;;;;;;;;;;;20.10;70.90;;;;;;4934585;29;1469;-72
2023/04/25 10:36:18;;;;;;;;;;;20.10;71.00;;;;;;4935477;29;868;-71
2023/04/25 10:38:44;;;;;;;;;;;20.10;70.80;;;;;;4933702;29;861;-72
2023/04/25 10:41:10;;;;;;;;;;;20.10;70.60;;;;;;4949763;29;1241;-72
2023/04/25 10:43:45;;;;;;;;;;;20.10;70.80;;;;;;4935817;29;1332;-73
2023/04/25 10:46:13;;;;;;;;;;;20.10;70.70;;;;;;4935851;29;1919;-72
2023/04/25 10:48:43;;;;;;;;;;;20.10;70.80;;;;;;4936401;29;1439;-72
2023/04/25 10:51:15;;;;;;;;;;;20.00;70.70;;;;;;4950501;29;903;-71
2023/04/25 10:53:40;;;;;;;;;;;20.00;70.70;;;;;;4934228;29;1339;-72
2023/04/25 10:56:32;;;;;;;;;;;20.00;70.60;;;;;;4935828;29;884;-73
2023/04/25 10:59:10;;;;;;;;;;;20.10;70.70;;;;;;4933714;29;1034;-72
2023/04/25 11:01:37;;;;;;;;;;;20.00;70.40;;;;;;4950797;29;895;-71
2023/04/25 11:04:02;;;;;;;;;;;20.00;70.30;;;;;;4949154;28;1455;-71
2023/04/25 11:06:37;;;;;;;;;;;20.00;70.20;;;;;;4934543;29;1996;-70
2023/04/25 11:09:02;;;;;;;;;;;20.00;70.20;;;;;;4948999;29;904;-72
2023/04/25 11:11:28;;;;;;;;;;;20.00;70.20;;;;;;4934381;29;809;-73
2023/04/25 11:13:54;;;;;;;;;;;20.00;70.10;;;;;;4933216;29;1694;-73
2023/04/25 11:16:19;;;;;;;;;;;20.00;70.00;;;;;;4934748;29;815;-73
2023/04/25 11:18:45;;;;;;;;;;;20.00;70.10;;;;;;4934989;29;971;-73
2023/04/25 11:21:11;;;;;;;;;;;20.00;70.00;;;;;;4936639;29;799;-73
2023/04/25 11:23:36;;;;;;;;;;;20.00;70.00;;;;;;4933206;29;1249;-72
2023/04/25 11:26:02;;;;;;;;;;;20.00;70.00;;;;;;4948934;29;1890;-71
2023/04/25 11:28:28;;;;;;;;;;;19.90;70.00;;;;;;4949197;29;1189;-72
2023/04/25 11:30:53;;;;;;;;;;;19.90;70.00;;;;;;4949427;29;956;-72
2023/04/25 11:33:22;;;;;;;;;;;20.00;70.00;;;;;;4935157;29;1540;-72
2023/04/25 11:35:48;;;;;;;;;;;20.00;70.20;;;;;;4934530;29;1265;-73
2023/04/25 11:38:13;;;;;;;;;;;20.00;70.20;;;;;;4948928;29;1558;-72
2023/04/25 11:40:39;;;;;;;;;;;19.90;70.10;;;;;;4934112;29;1246;-72
2023/04/25 11:43:04;;;;;;;;;;;20.00;70.20;;;;;;4948273;29;1050;-72
2023/04/25 11:45:30;;;;;;;;;;;19.90;70.00;;;;;;4948359;29;1907;-70
2023/04/25 11:47:56;;;;;;;;;;;19.90;70.10;;;;;;4933843;29;947;-71
2023/04/25 11:50:21;;;;;;;;;;;19.90;70.20;;;;;;4933954;29;924;-72
2023/04/25 11:52:47;;;;;;;;;;;19.90;70.20;;;;;;4933602;29;836;-71
2023/04/25 11:55:19;;;;;;;;;;;19.90;70.30;;;;;;4932693;29;1277;-71
2023/04/25 11:57:45;;;;;;;;;;;19.80;70.40;;;;;;4933186;29;1297;-71
2023/04/25 12:00:12;;;;;;;;;;;19.80;70.40;;;;;;4940448;29;1860;-74
2023/04/25 12:02:42;;;;;;;;;;;19.80;70.40;;;;;;4930162;29;1605;-71
2023/04/25 12:05:10;;;;;;;;;;;19.80;70.50;;;;;;4932550;29;1438;-75
2023/04/25 12:07:40;;;;;;;;;;;19.80;70.60;;;;;;4947307;29;1911;-70
2023/04/25 12:10:07;;;;;;;;;;;19.80;70.80;;;;;;4931730;29;860;-70
2023/04/25 12:12:33;;;;;;;;;;;19.80;71.00;;;;;;4932765;29;901;-70
2023/04/25 12:15:08;;;;;;;;;;;19.80;71.00;;;;;;4947762;29;1276;-70
2023/04/25 12:17:33;;;;;;;;;;;19.80;71.00;;;;;;4933033;29;808;-72
2023/04/25 12:19:59;;;;;;;;;;;19.80;71.20;;;;;;4933385;29;832;-72
2023/04/25 12:22:25;;;;;;;;;;;19.80;71.30;;;;;;4933521;29;888;-72
2023/04/25 12:24:51;;;;;;;;;;;19.80;71.20;;;;;;4933509;29;1268;-72
2023/04/25 12:27:18;;;;;;;;;;;19.80;71.70;;;;;;4933397;29;1907;-73
2023/04/25 12:29:51;;;;;;;;;;;19.80;71.60;;;;;;4933297;29;860;-72
2023/04/25 12:32:16;;;;;;;;;;;19.90;71.20;;;;;;4932060;29;873;-72
2023/04/25 12:34:42;;;;;;;;;;;19.90;71.00;;;;;;4932930;29;1380;-71
2023/04/25 12:37:07;;;;;;;;;;;19.90;70.90;;;;;;4933123;29;955;-71
2023/04/25 12:39:33;;;;;;;;;;;19.90;70.80;;;;;;4946529;29;1106;-71
2023/04/25 12:41:59;;;;;;;;;;;19.90;70.60;;;;;;4933144;29;968;-70
2023/04/25 12:44:25;;;;;;;;;;;19.90;70.50;;;;;;4932928;29;1284;-73
2023/04/25 12:46:50;;;;;;;;;;;19.90;70.90;;;;;;4933371;29;1907;-73
2023/04/25 12:49:16;;;;;;;;;;;19.90;71.10;;;;;;4933719;29;813;-72
2023/04/25 12:51:41;;;;;;;;;;;19.90;70.90;;;;;;4947603;29;1434;-72
2023/04/25 12:54:08;;;;;;;;;;;19.90;70.80;;;;;;4933026;29;1376;-72
2023/04/25 12:56:33;;;;;;;;;;;19.90;70.70;;;;;;4935024;29;948;-71
2023/04/25 12:58:59;;;;;;;;;;;19.80;70.70;;;;;;4934107;29;1011;-71
2023/04/25 13:01:24;;;;;;;;;;;19.90;70.80;;;;;;4933941;29;797;-71
2023/04/25 13:03:50;;;;;;;;;;;19.80;70.80;;;;;;4948264;29;1405;-71
2023/04/25 13:06:16;;;;;;;;;;;19.80;70.80;;;;;;4933060;29;1910;-72
2023/04/25 13:08:42;;;;;;;;;;;19.80;70.90;;;;;;4933343;29;841;-72
2023/04/25 13:11:07;;;;;;;;;;;19.80;70.90;;;;;;4933561;29;912;-72
2023/04/25 13:13:34;;;;;;;;;;;19.80;70.90;;;;;;4932938;29;844;-72
2023/04/25 13:16:02;;;;;;;;;;;19.80;70.90;;;;;;4932351;29;1312;-72
2023/04/25 13:18:28;;;;;;;;;;;19.80;70.90;;;;;;4932720;29;960;-72
2023/04/25 13:20:54;;;;;;;;;;;19.80;70.90;;;;;;4933142;29;853;-70
2023/04/25 13:23:20;;;;;;;;;;;19.80;71.00;;;;;;4931234;29;813;-71
2023/04/25 13:25:46;;;;;;;;;;;19.70;71.00;;;;;;4947713;29;1902;-71
2023/04/25 13:28:11;;;;;;;;;;;19.70;71.10;;;;;;4930765;29;950;-72
2023/04/25 13:30:37;;;;;;;;;;;19.70;71.10;;;;;;4932694;29;834;-72
2023/04/25 13:33:03;;;;;;;;;;;19.70;71.00;;;;;;4932026;29;1183;-70
2023/04/25 13:35:29;;;;;;;;;;;19.70;71.10;;;;;;4932929;29;1647;-71
2023/04/25 13:37:54;;;;;;;;;;;19.70;71.20;;;;;;4932609;29;888;-70
2023/04/25 13:40:20;;;;;;;;;;;19.70;71.10;;;;;;4933220;29;1282;-76
2023/04/25 13:42:46;;;;;;;;;;;19.70;71.10;;;;;;4931144;29;898;-72
2023/04/25 13:45:11;;;;;;;;;;;19.70;71.20;;;;;;4932539;29;1275;-72
2023/04/25 13:47:36;;;;;;;;;;;19.70;71.10;;;;;;4935120;29;1960;-72
2023/04/25 13:50:03;;;;;;;;;;;19.70;71.10;;;;;;4936077;29;1255;-72
2023/04/25 13:52:28;;;;;;;;;;;19.70;71.10;;;;;;4935224;29;1242;-72
2023/04/25 13:54:54;;;;;;;;;;;19.70;71.10;;;;;;4933793;29;2166;-72
2023/04/25 13:57:20;;;;;;;;;;;19.70;71.10;;;;;;4935251;29;1291;-71
2023/04/25 13:59:46;;;;;;;;;;;19.70;71.20;;;;;;4935268;29;1218;-73
2023/04/25 14:02:12;;;;;;;;;;;19.70;71.30;;;;;;4934970;29;1520;-71
2023/04/25 14:04:37;;;;;;;;;;;19.70;71.50;;;;;;4949482;28;1833;-71
2023/04/25 14:07:03;;;;;;;;;;;19.70;71.60;;;;;;4949969;29;1903;-71
2023/04/25 14:09:28;;;;;;;;;;;19.70;71.70;;;;;;4933785;29;845;-71
2023/04/25 14:11:54;;;;;;;;;;;19.70;71.70;;;;;;4949541;29;830;-71
2023/04/25 14:14:20;;;;;;;;;;;19.70;71.80;;;;;;4949474;29;1584;-71
2023/04/25 14:16:47;;;;;;;;;;;19.70;71.90;;;;;;4934948;29;871;-71
2023/04/25 14:19:13;;;;;;;;;;;19.60;71.90;;;;;;4934425;29;831;-71
2023/04/25 14:21:39;;;;;;;;;;;19.60;72.00;;;;;;4934891;29;877;-71
2023/04/25 14:24:05;;;;;;;;;;;19.60;72.10;;;;;;4934542;29;1279;-71
2023/04/25 14:26:30;;;;;;;;;;;19.60;71.90;;;;;;4934730;29;1902;-71
2023/04/25 14:28:56;;;;;;;;;;;19.60;72.00;;;;;;4934744;29;841;-71